Time;durP1;ratioP1;P1;durP2;ratioP2;P2;SDS_P1;SDS_P2;PMS_P1;PMS_P2;Temp;Humidity;BMP_temperature;BMP_pressure;BME280_temperature;BME280_humidity;BME280_pressure;Samples;Min_cycle;Max_cycle;Signal;HPM_P1;HPM_P2
2022/04/14 00:00:23;;;;;;;66.43;20.40;;;;;;;;;;5054285;28;20064;-76
2022/04/14 00:02:49;;;;;;;54.88;20.90;;;;;;;;;;5054427;28;20024;-81
2022/04/14 00:05:15;;;;;;;56.63;20.67;;;;;;;;;;5064436;28;20125;-81
2022/04/14 00:07:40;;;;;;;49.75;19.70;;;;;;;;;;5050188;28;20117;-81
2022/04/14 00:10:06;;;;;;;55.13;19.90;;;;;;;;;;5065398;28;20032;-81
2022/04/14 00:12:32;;;;;;;46.30;19.70;;;;;;;;;;5069554;28;20036;-81
2022/04/14 00:14:58;;;;;;;52.70;19.20;;;;;;;;;;5068903;28;20082;-81
2022/04/14 00:17:24;;;;;;;46.75;18.63;;;;;;;;;;5068928;28;20127;-81
2022/04/14 00:19:49;;;;;;;44.38;17.10;;;;;;;;;;5074877;28;20036;-81
2022/04/14 00:22:15;;;;;;;41.45;18.55;;;;;;;;;;5063536;28;20633;-81
2022/04/14 00:24:40;;;;;;;46.67;18.27;;;;;;;;;;5081309;28;20058;-81
2022/04/14 00:27:06;;;;;;;43.40;18.42;;;;;;;;;;5064456;28;20028;-81
2022/04/14 00:29:31;;;;;;;50.50;18.40;;;;;;;;;;5045206;28;20631;-81
2022/04/14 00:31:57;;;;;;;45.45;17.85;;;;;;;;;;5054299;28;20537;-81
2022/04/14 00:34:22;;;;;;;48.00;18.50;;;;;;;;;;5062678;28;20020;-76
2022/04/14 00:36:48;;;;;;;43.85;17.92;;;;;;;;;;5071611;28;20497;-76
2022/04/14 00:39:13;;;;;;;45.00;17.30;;;;;;;;;;5061342;28;20025;-75
2022/04/14 00:41:39;;;;;;;45.42;18.55;;;;;;;;;;5066433;28;20547;-76
2022/04/14 00:44:05;;;;;;;53.13;17.30;;;;;;;;;;5072208;28;20041;-76
2022/04/14 00:46:31;;;;;;;44.70;18.55;;;;;;;;;;5079150;28;20036;-76
2022/04/14 00:48:57;;;;;;;43.30;17.63;;;;;;;;;;5066410;28;20020;-75
2022/04/14 00:51:22;;;;;;;46.45;15.75;;;;;;;;;;5048184;28;20167;-77
2022/04/14 00:53:48;;;;;;;42.90;18.30;;;;;;;;;;5066120;28;20107;-76
2022/04/14 00:56:13;;;;;;;49.28;16.52;;;;;;;;;;5063663;28;20037;-76
2022/04/14 00:58:41;;;;;;;50.45;17.88;;;;;;;;;;5073512;28;20269;-76
2022/04/14 01:01:07;;;;;;;43.17;17.13;;;;;;;;;;5068280;28;20162;-76
2022/04/14 01:03:36;;;;;;;37.88;15.15;;;;;;;;;;5070274;28;20533;-81
2022/04/14 01:06:03;;;;;;;44.47;15.60;;;;;;;;;;5068485;28;20041;-81
2022/04/14 01:08:32;;;;;;;40.00;15.65;;;;;;;;;;5067349;28;20487;-81
2022/04/14 01:10:58;;;;;;;33.75;13.88;;;;;;;;;;5067334;28;20033;-80
2022/04/14 01:13:24;;;;;;;42.40;15.60;;;;;;;;;;5066497;28;20025;-81
2022/04/14 01:15:49;;;;;;;39.92;15.00;;;;;;;;;;5066144;28;20031;-81
2022/04/14 01:18:16;;;;;;;32.30;13.65;;;;;;;;;;5080016;28;20040;-80
2022/04/14 01:20:43;;;;;;;40.20;13.45;;;;;;;;;;5054375;28;20596;-81
2022/04/14 01:23:10;;;;;;;34.33;14.20;;;;;;;;;;5070524;28;20036;-81
2022/04/14 01:25:37;;;;;;;29.55;12.95;;;;;;;;;;5068638;28;20028;-81
2022/04/14 01:28:03;;;;;;;33.75;12.45;;;;;;;;;;5074891;28;20047;-81
2022/04/14 01:30:29;;;;;;;28.80;12.75;;;;;;;;;;5069787;28;20097;-81
2022/04/14 01:32:55;;;;;;;36.80;13.30;;;;;;;;;;5053418;28;20039;-76
2022/04/14 01:35:22;;;;;;;44.70;15.02;;;;;;;;;;5074940;28;20040;-76
2022/04/14 01:37:47;;;;;;;29.60;12.18;;;;;;;;;;5052122;28;20031;-76
2022/04/14 01:40:13;;;;;;;35.25;14.05;;;;;;;;;;5049700;28;20028;-76
2022/04/14 01:42:39;;;;;;;31.88;12.75;;;;;;;;;;5069974;28;20060;-76
2022/04/14 01:45:10;;;;;;;31.52;12.43;;;;;;;;;;5073182;28;20071;-76
2022/04/14 01:47:43;;;;;;;32.13;13.00;;;;;;;;;;5071403;28;20062;-76
2022/04/14 01:50:14;;;;;;;29.65;12.30;;;;;;;;;;5060934;28;20053;-75
2022/04/14 01:52:42;;;;;;;29.92;12.80;;;;;;;;;;5068267;28;20494;-76
2022/04/14 01:55:08;;;;;;;31.15;12.40;;;;;;;;;;5065396;28;20044;-76
2022/04/14 01:57:33;;;;;;;26.33;12.55;;;;;;;;;;5069748;28;20036;-76
2022/04/14 02:00:00;;;;;;;31.27;13.63;;;;;;;;;;5051056;28;20505;-76
2022/04/14 02:02:25;;;;;;;28.45;12.20;;;;;;;;;;5072252;28;20522;-76
2022/04/14 02:04:51;;;;;;;32.80;12.95;;;;;;;;;;5057572;28;20041;-76
2022/04/14 02:07:18;;;;;;;29.98;12.55;;;;;;;;;;5064834;28;20124;-76
2022/04/14 02:09:43;;;;;;;27.75;12.38;;;;;;;;;;5073139;28;20124;-76
2022/04/14 02:12:11;;;;;;;32.90;12.27;;;;;;;;;;5067700;28;20110;-76
2022/04/14 02:14:38;;;;;;;27.35;12.50;;;;;;;;;;5082634;28;20510;-76
2022/04/14 02:17:04;;;;;;;34.65;12.55;;;;;;;;;;5069910;28;20040;-76
2022/04/14 02:19:29;;;;;;;31.65;13.52;;;;;;;;;;5065010;28;20285;-76
2022/04/14 02:21:58;;;;;;;26.48;11.65;;;;;;;;;;5068109;28;20032;-75
2022/04/14 02:24:26;;;;;;;26.23;12.25;;;;;;;;;;5050221;28;20054;-75
2022/04/14 02:26:53;;;;;;;32.45;12.02;;;;;;;;;;5066322;28;20021;-76
2022/04/14 02:29:19;;;;;;;27.90;11.95;;;;;;;;;;5067042;28;20024;-76
2022/04/14 02:31:44;;;;;;;32.70;12.60;;;;;;;;;;5065817;28;20047;-76
2022/04/14 02:34:10;;;;;;;25.85;11.65;;;;;;;;;;5067645;28;20258;-75
2022/04/14 02:36:35;;;;;;;34.42;12.93;;;;;;;;;;5062829;28;20063;-76
2022/04/14 02:39:01;;;;;;;30.77;12.38;;;;;;;;;;5064606;28;20154;-76
2022/04/14 02:41:27;;;;;;;31.77;12.77;;;;;;;;;;5071838;28;20107;-75
2022/04/14 02:43:52;;;;;;;42.28;11.82;;;;;;;;;;5073326;28;20819;-76
2022/04/14 02:46:18;;;;;;;32.53;13.15;;;;;;;;;;5066179;28;20037;-76
2022/04/14 02:48:43;;;;;;;35.85;13.77;;;;;;;;;;5065572;28;22015;-76
2022/04/14 02:51:09;;;;;;;29.70;13.88;;;;;;;;;;5062916;28;20504;-76
2022/04/14 02:53:34;;;;;;;29.83;12.68;;;;;;;;;;5052751;28;20035;-76
2022/04/14 02:56:00;;;;;;;40.35;14.25;;;;;;;;;;5060465;28;20131;-76
2022/04/14 02:58:25;;;;;;;34.45;14.00;;;;;;;;;;5050134;28;20461;-76
2022/04/14 03:00:51;;;;;;;30.95;14.48;;;;;;;;;;5070453;28;20491;-76
2022/04/14 03:03:17;;;;;;;34.35;14.48;;;;;;;;;;5066214;28;20078;-76
2022/04/14 03:05:43;;;;;;;36.08;15.27;;;;;;;;;;5050165;28;20040;-76
2022/04/14 03:08:08;;;;;;;34.60;12.73;;;;;;;;;;5071536;28;20037;-76
2022/04/14 03:10:34;;;;;;;31.42;12.90;;;;;;;;;;5055137;28;20032;-76
2022/04/14 03:12:59;;;;;;;27.92;13.73;;;;;;;;;;5070471;28;20096;-75
2022/04/14 03:15:25;;;;;;;25.70;13.13;;;;;;;;;;5069062;28;20035;-75
2022/04/14 03:17:51;;;;;;;34.80;14.38;;;;;;;;;;5059846;28;20086;-76
2022/04/14 03:20:16;;;;;;;40.42;14.30;;;;;;;;;;5073320;28;20463;-75
2022/04/14 03:22:42;;;;;;;32.05;14.77;;;;;;;;;;5074720;28;20456;-76
2022/04/14 03:25:10;;;;;;;30.30;13.52;;;;;;;;;;5064754;28;20164;-75
2022/04/14 03:27:37;;;;;;;36.30;14.80;;;;;;;;;;5051596;28;20090;-76
2022/04/14 03:30:04;;;;;;;27.63;13.57;;;;;;;;;;5060940;28;20384;-75
2022/04/14 03:32:29;;;;;;;29.45;14.48;;;;;;;;;;5067499;28;20029;-76
2022/04/14 03:34:55;;;;;;;32.42;13.82;;;;;;;;;;5083457;28;20040;-76
2022/04/14 03:37:21;;;;;;;30.63;12.68;;;;;;;;;;5050534;28;20587;-76
2022/04/14 03:39:47;;;;;;;30.05;13.48;;;;;;;;;;5067928;28;20036;-76
2022/04/14 03:42:13;;;;;;;33.60;13.70;;;;;;;;;;5066108;28;20067;-76
2022/04/14 03:44:38;;;;;;;26.27;13.27;;;;;;;;;;5047669;28;20068;-76
2022/04/14 03:47:04;;;;;;;33.30;14.00;;;;;;;;;;5048747;28;20035;-76
2022/04/14 03:49:30;;;;;;;25.75;12.65;;;;;;;;;;5048387;28;20518;-76
2022/04/14 03:51:55;;;;;;;31.83;12.95;;;;;;;;;;5063453;28;20479;-75
2022/04/14 03:54:21;;;;;;;35.58;14.50;;;;;;;;;;5067369;28;20450;-76
2022/04/14 03:56:48;;;;;;;28.45;13.90;;;;;;;;;;5066005;28;20410;-76
2022/04/14 03:59:14;;;;;;;26.90;13.35;;;;;;;;;;5065104;28;20024;-76
2022/04/14 04:01:40;;;;;;;24.52;12.13;;;;;;;;;;5065183;28;20090;-76
2022/04/14 04:04:06;;;;;;;29.85;13.15;;;;;;;;;;5069230;28;20032;-81
2022/04/14 04:06:32;;;;;;;27.10;12.05;;;;;;;;;;5068374;28;20517;-81
2022/04/14 04:08:57;;;;;;;33.60;13.18;;;;;;;;;;5071333;28;20123;-82
2022/04/14 04:11:23;;;;;;;29.50;13.02;;;;;;;;;;5050982;28;20036;-81
2022/04/14 04:13:48;;;;;;;34.40;13.30;;;;;;;;;;5066497;28;20032;-76
2022/04/14 04:16:14;;;;;;;27.80;12.27;;;;;;;;;;5050300;28;20039;-76
2022/04/14 04:18:40;;;;;;;24.50;10.95;;;;;;;;;;5070681;28;20127;-76
2022/04/14 04:21:05;;;;;;;29.40;11.35;;;;;;;;;;5067727;28;20048;-76
2022/04/14 04:23:31;;;;;;;28.30;11.88;;;;;;;;;;5051715;28;20119;-76
2022/04/14 04:25:56;;;;;;;21.25;10.63;;;;;;;;;;5064599;28;20479;-75
2022/04/14 04:28:22;;;;;;;26.35;11.15;;;;;;;;;;5065407;28;20032;-76
2022/04/14 04:30:48;;;;;;;27.40;11.13;;;;;;;;;;5051084;28;20649;-76
2022/04/14 04:33:14;;;;;;;28.73;11.52;;;;;;;;;;5065632;28;20453;-75
2022/04/14 04:35:39;;;;;;;19.70;10.38;;;;;;;;;;5066070;28;20609;-76
2022/04/14 04:38:05;;;;;;;26.70;10.73;;;;;;;;;;5066365;28;20044;-76
2022/04/14 04:40:31;;;;;;;23.63;10.88;;;;;;;;;;5064419;28;20024;-80
2022/04/14 04:42:56;;;;;;;25.55;11.00;;;;;;;;;;5065775;28;20032;-80
2022/04/14 04:45:22;;;;;;;30.83;11.43;;;;;;;;;;5062976;28;20039;-80
2022/04/14 04:47:47;;;;;;;24.88;11.10;;;;;;;;;;5066559;28;20371;-80
2022/04/14 04:50:13;;;;;;;22.63;10.13;;;;;;;;;;5065381;28;20056;-81
2022/04/14 04:52:38;;;;;;;29.27;11.30;;;;;;;;;;5033054;28;20517;-81
2022/04/14 04:55:04;;;;;;;26.27;10.48;;;;;;;;;;5070238;28;20043;-76
2022/04/14 04:57:30;;;;;;;24.40;10.50;;;;;;;;;;5067659;28;20070;-75
2022/04/14 04:59:55;;;;;;;22.67;10.05;;;;;;;;;;5045152;28;20115;-76
2022/04/14 05:02:21;;;;;;;21.95;10.75;;;;;;;;;;5074616;28;20029;-76
2022/04/14 05:04:46;;;;;;;24.17;10.18;;;;;;;;;;5068991;28;20037;-76
2022/04/14 05:07:12;;;;;;;22.55;10.50;;;;;;;;;;5075472;28;20089;-76
2022/04/14 05:09:37;;;;;;;20.77;10.32;;;;;;;;;;5069945;28;20066;-75
2022/04/14 05:12:03;;;;;;;21.92;10.63;;;;;;;;;;5056507;28;20526;-76
2022/04/14 05:14:29;;;;;;;20.80;9.85;;;;;;;;;;5068027;28;20033;-76
2022/04/14 05:16:54;;;;;;;20.95;9.93;;;;;;;;;;5071334;28;20089;-76
2022/04/14 05:19:20;;;;;;;25.33;10.45;;;;;;;;;;5052524;28;20036;-76
2022/04/14 05:21:47;;;;;;;18.25;9.85;;;;;;;;;;5064978;28;20123;-77
2022/04/14 05:24:12;;;;;;;24.02;11.20;;;;;;;;;;5049393;28;20057;-76
2022/04/14 05:26:38;;;;;;;23.90;10.25;;;;;;;;;;5065820;28;20037;-80
2022/04/14 05:29:04;;;;;;;20.52;11.18;;;;;;;;;;5060866;28;20483;-81
2022/04/14 05:31:30;;;;;;;22.45;11.25;;;;;;;;;;5067954;28;20040;-76
2022/04/14 05:33:55;;;;;;;20.88;10.40;;;;;;;;;;5073844;28;20505;-76
2022/04/14 05:36:21;;;;;;;33.78;12.30;;;;;;;;;;5068752;28;20040;-76
2022/04/14 05:38:46;;;;;;;42.47;14.30;;;;;;;;;;5048509;28;20546;-76
2022/04/14 05:41:12;;;;;;;28.67;12.75;;;;;;;;;;5038512;28;20036;-76
2022/04/14 05:43:37;;;;;;;27.50;12.73;;;;;;;;;;5055987;28;20028;-76
2022/04/14 05:46:03;;;;;;;25.90;12.07;;;;;;;;;;5057122;28;20028;-76
2022/04/14 05:48:29;;;;;;;25.05;11.95;;;;;;;;;;5060872;28;20037;-76
2022/04/14 05:50:54;;;;;;;26.52;12.20;;;;;;;;;;5049288;28;20441;-76
2022/04/14 05:53:25;;;;;;;28.33;12.20;;;;;;;;;;5035951;28;20036;-76
2022/04/14 05:55:50;;;;;;;27.20;12.23;;;;;;;;;;5068828;28;20113;-76
2022/04/14 05:58:16;;;;;;;23.67;10.93;;;;;;;;;;5052800;28;20115;-76
2022/04/14 06:00:42;;;;;;;21.92;11.02;;;;;;;;;;5085253;28;20032;-76
2022/04/14 06:03:08;;;;;;;21.48;10.15;;;;;;;;;;5070680;28;20028;-81
2022/04/14 06:05:33;;;;;;;19.08;9.80;;;;;;;;;;5067382;28;20032;-81
2022/04/14 06:07:59;;;;;;;28.17;10.98;;;;;;;;;;5067868;28;20029;-76
2022/04/14 06:10:26;;;;;;;23.50;10.52;;;;;;;;;;5070360;28;20027;-76
2022/04/14 06:12:55;;;;;;;23.83;10.52;;;;;;;;;;5068455;28;20036;-77
2022/04/14 06:15:21;;;;;;;24.27;11.63;;;;;;;;;;5067720;28;20033;-76
2022/04/14 06:17:46;;;;;;;25.15;9.73;;;;;;;;;;5069132;28;20711;-76
2022/04/14 06:20:12;;;;;;;22.08;10.60;;;;;;;;;;5046485;28;20048;-76
2022/04/14 06:22:42;;;;;;;21.50;10.82;;;;;;;;;;5069336;28;20143;-75
2022/04/14 06:25:12;;;;;;;22.60;10.82;;;;;;;;;;5068579;28;20044;-77
2022/04/14 06:27:45;;;;;;;26.40;11.35;;;;;;;;;;5070771;28;20531;-76
2022/04/14 06:30:13;;;;;;;23.60;10.27;;;;;;;;;;5066670;28;20041;-77
2022/04/14 06:32:39;;;;;;;23.00;11.15;;;;;;;;;;5069688;28;20020;-75
2022/04/14 06:35:08;;;;;;;21.48;10.43;;;;;;;;;;5068084;28;20043;-76
2022/04/14 06:37:35;;;;;;;20.88;10.98;;;;;;;;;;5067037;28;20099;-76
2022/04/14 06:40:02;;;;;;;29.33;11.20;;;;;;;;;;5060588;28;20653;-76
2022/04/14 06:42:27;;;;;;;23.20;11.35;;;;;;;;;;5068613;28;20027;-76
2022/04/14 06:44:58;;;;;;;36.53;11.35;;;;;;;;;;5082066;28;20430;-80
2022/04/14 06:47:23;;;;;;;23.58;10.75;;;;;;;;;;5069659;28;20025;-80
2022/04/14 06:49:49;;;;;;;24.77;10.13;;;;;;;;;;5058868;28;20028;-80
2022/04/14 06:52:17;;;;;;;26.77;12.50;;;;;;;;;;5077874;28;20406;-80
2022/04/14 06:54:43;;;;;;;18.35;9.90;;;;;;;;;;5052605;28;20245;-84
2022/04/14 06:57:09;;;;;;;27.83;9.55;;;;;;;;;;5068474;28;20032;-79
2022/04/14 06:59:34;;;;;;;31.77;11.48;;;;;;;;;;5066951;28;20506;-81
2022/04/14 07:02:00;;;;;;;20.52;10.27;;;;;;;;;;5050853;28;20141;-76
2022/04/14 07:04:25;;;;;;;20.58;9.85;;;;;;;;;;5044324;28;20038;-81
2022/04/14 07:06:51;;;;;;;19.67;9.68;;;;;;;;;;5066230;28;20033;-77
2022/04/14 07:09:17;;;;;;;17.48;9.80;;;;;;;;;;5059400;28;20094;-77
2022/04/14 07:11:42;;;;;;;20.08;9.75;;;;;;;;;;5067838;28;20025;-77
2022/04/14 07:14:08;;;;;;;20.25;9.40;;;;;;;;;;5067849;28;20086;-74
2022/04/14 07:16:33;;;;;;;20.23;9.82;;;;;;;;;;5050528;28;20085;-75
2022/04/14 07:18:59;;;;;;;20.85;9.80;;;;;;;;;;5047239;28;20016;-75
2022/04/14 07:21:24;;;;;;;18.17;9.90;;;;;;;;;;5068843;28;20459;-75
2022/04/14 07:23:50;;;;;;;17.42;9.63;;;;;;;;;;5051224;28;20066;-75
2022/04/14 07:26:16;;;;;;;22.13;9.70;;;;;;;;;;5051369;28;20039;-76
2022/04/14 07:28:41;;;;;;;19.17;9.27;;;;;;;;;;5067760;28;20117;-75
2022/04/14 07:31:07;;;;;;;17.10;9.63;;;;;;;;;;5066396;28;20029;-75
2022/04/14 07:33:34;;;;;;;18.40;9.40;;;;;;;;;;5051728;28;20115;-76
2022/04/14 07:36:00;;;;;;;17.23;8.88;;;;;;;;;;5067557;28;20123;-77
2022/04/14 07:38:25;;;;;;;15.27;8.90;;;;;;;;;;5069821;28;20096;-76
2022/04/14 07:40:51;;;;;;;19.40;9.35;;;;;;;;;;5067912;28;20043;-75
2022/04/14 07:43:16;;;;;;;17.27;8.80;;;;;;;;;;5067067;28;20025;-76
2022/04/14 07:45:45;;;;;;;18.10;8.95;;;;;;;;;;5064304;28;20036;-75
2022/04/14 07:48:11;;;;;;;23.08;9.25;;;;;;;;;;5047550;28;20572;-76
2022/04/14 07:50:37;;;;;;;21.20;9.60;;;;;;;;;;5082051;28;20035;-75
2022/04/14 07:53:02;;;;;;;16.75;8.23;;;;;;;;;;5050292;28;20032;-76
2022/04/14 07:55:30;;;;;;;15.65;7.70;;;;;;;;;;5082377;28;20066;-76
2022/04/14 07:58:07;;;;;;;14.82;8.55;;;;;;;;;;5062296;28;20562;-75
2022/04/14 08:00:33;;;;;;;25.30;8.32;;;;;;;;;;5068221;28;20632;-75
2022/04/14 08:03:01;;;;;;;18.08;9.23;;;;;;;;;;5068598;28;20717;-75
2022/04/14 08:05:28;;;;;;;15.52;8.15;;;;;;;;;;5067208;28;20167;-75
2022/04/14 08:07:54;;;;;;;16.02;7.93;;;;;;;;;;5063616;28;20085;-75
2022/04/14 08:10:20;;;;;;;23.92;8.95;;;;;;;;;;5066286;28;20095;-75
2022/04/14 08:12:47;;;;;;;15.48;8.45;;;;;;;;;;5066822;28;20032;-75
2022/04/14 08:15:12;;;;;;;21.42;8.45;;;;;;;;;;5063617;28;20031;-76
2022/04/14 08:17:40;;;;;;;12.05;7.00;;;;;;;;;;5066981;28;20028;-76
2022/04/14 08:20:07;;;;;;;17.58;7.30;;;;;;;;;;5057656;28;20507;-76
2022/04/14 08:22:47;;;;;;;13.90;6.88;;;;;;;;;;5082146;28;20756;-75
2022/04/14 08:25:24;;;;;;;12.50;6.40;;;;;;;;;;5064394;28;20047;-75
2022/04/14 08:27:50;;;;;;;15.80;6.60;;;;;;;;;;5067889;28;20094;-75
2022/04/14 08:30:17;;;;;;;14.45;7.03;;;;;;;;;;5060568;28;20086;-75
2022/04/14 08:32:45;;;;;;;11.20;6.03;;;;;;;;;;5072376;28;20093;-80
2022/04/14 08:35:12;;;;;;;23.23;6.55;;;;;;;;;;5065522;28;20907;-80
2022/04/14 08:37:39;;;;;;;16.52;6.43;;;;;;;;;;5060868;28;20035;-75
2022/04/14 08:40:06;;;;;;;44.60;6.35;;;;;;;;;;5068247;28;20728;-76
2022/04/14 08:42:43;;;;;;;14.80;5.50;;;;;;;;;;5058357;28;20454;-76
2022/04/14 08:45:13;;;;;;;10.65;5.45;;;;;;;;;;5078194;28;20063;-76
2022/04/14 08:47:40;;;;;;;14.93;5.20;;;;;;;;;;5069630;28;20419;-75
2022/04/14 08:50:11;;;;;;;9.95;4.50;;;;;;;;;;5080136;28;20032;-75
2022/04/14 08:52:38;;;;;;;11.27;4.18;;;;;;;;;;5064059;28;20055;-75
2022/04/14 08:55:05;;;;;;;8.13;3.60;;;;;;;;;;5044864;28;20037;-75
2022/04/14 08:57:32;;;;;;;12.98;4.30;;;;;;;;;;5065634;28;20483;-75
2022/04/14 09:00:00;;;;;;;13.00;4.53;;;;;;;;;;5068125;28;20033;-74
2022/04/14 09:02:27;;;;;;;10.73;4.47;;;;;;;;;;5067099;28;20028;-75
2022/04/14 09:04:55;;;;;;;9.65;4.30;;;;;;;;;;5065751;28;20033;-74
2022/04/14 09:07:21;;;;;;;11.50;4.80;;;;;;;;;;5067005;28;20016;-75
2022/04/14 09:09:46;;;;;;;13.40;4.72;;;;;;;;;;5030827;28;20056;-74
2022/04/14 09:12:13;;;;;;;12.70;4.60;;;;;;;;;;5067377;28;20036;-75
2022/04/14 09:14:39;;;;;;;10.30;4.80;;;;;;;;;;5067579;28;20039;-75
2022/04/14 09:17:05;;;;;;;7.75;4.18;;;;;;;;;;5067663;28;20467;-74
2022/04/14 09:19:32;;;;;;;9.65;3.95;;;;;;;;;;5047578;28;20029;-75
2022/04/14 09:22:00;;;;;;;7.05;3.67;;;;;;;;;;5082865;28;20031;-74
2022/04/14 09:24:45;;;;;;;7.38;3.33;;;;;;;;;;5065600;28;20160;-74
2022/04/14 09:27:32;;;;;;;10.32;3.17;;;;;;;;;;5064689;28;20037;-74
2022/04/14 09:30:04;;;;;;;9.77;3.17;;;;;;;;;;5061901;28;20028;-75
2022/04/14 09:32:35;;;;;;;7.50;3.00;;;;;;;;;;5066133;28;20090;-74
2022/04/14 09:35:03;;;;;;;4.57;3.08;;;;;;;;;;5066754;28;20736;-74
2022/04/14 09:37:29;;;;;;;6.30;2.80;;;;;;;;;;5077097;28;20039;-75
2022/04/14 09:39:57;;;;;;;5.68;2.50;;;;;;;;;;5082556;28;20032;-74
2022/04/14 09:42:25;;;;;;;9.02;2.47;;;;;;;;;;5070229;28;20052;-74
2022/04/14 09:44:53;;;;;;;4.55;2.53;;;;;;;;;;5067491;28;20032;-74
2022/04/14 09:47:39;;;;;;;6.85;2.35;;;;;;;;;;5055759;28;20035;-75
2022/04/14 09:50:07;;;;;;;5.75;2.25;;;;;;;;;;5067621;28;20681;-74
2022/04/14 09:52:33;;;;;;;11.63;2.65;;;;;;;;;;5069725;28;20104;-74
2022/04/14 09:55:09;;;;;;;10.07;2.30;;;;;;;;;;5070411;28;20108;-75
2022/04/14 09:57:34;;;;;;;8.20;2.17;;;;;;;;;;5062968;28;20025;-75
2022/04/14 10:00:00;;;;;;;3.38;1.50;;;;;;;;;;5073652;28;20391;-75
2022/04/14 10:02:26;;;;;;;5.72;2.13;;;;;;;;;;5047337;28;20029;-74
2022/04/14 10:04:52;;;;;;;9.95;2.10;;;;;;;;;;5052381;28;20036;-75
2022/04/14 10:07:19;;;;;;;6.93;2.58;;;;;;;;;;5071874;28;20040;-79
2022/04/14 10:09:53;;;;;;;5.10;2.13;;;;;;;;;;5072007;28;20036;-80
2022/04/14 10:12:24;;;;;;;6.85;2.55;;;;;;;;;;5069426;28;20033;-76
2022/04/14 10:14:56;;;;;;;4.75;2.00;;;;;;;;;;5079631;28;20032;-76
2022/04/14 10:17:24;;;;;;;10.15;2.25;;;;;;;;;;5069579;28;20020;-76
2022/04/14 10:19:50;;;;;;;9.55;1.90;;;;;;;;;;5070200;28;20024;-76
2022/04/14 10:22:16;;;;;;;9.27;1.60;;;;;;;;;;5067998;28;20024;-76
2022/04/14 10:24:43;;;;;;;6.55;1.40;;;;;;;;;;5065709;28;20048;-75
2022/04/14 10:27:10;;;;;;;7.20;1.38;;;;;;;;;;5066147;28;20344;-75
2022/04/14 10:29:38;;;;;;;3.75;0.90;;;;;;;;;;5065223;28;20058;-75
2022/04/14 10:32:05;;;;;;;5.18;1.13;;;;;;;;;;5065149;28;20040;-75
2022/04/14 10:34:33;;;;;;;3.97;1.30;;;;;;;;;;5051841;28;20032;-76
2022/04/14 10:37:01;;;;;;;10.52;1.10;;;;;;;;;;5072425;28;20041;-75
2022/04/14 10:39:31;;;;;;;5.80;1.40;;;;;;;;;;5066319;28;20024;-75
2022/04/14 10:41:57;;;;;;;3.75;1.00;;;;;;;;;;5063845;28;20460;-75
2022/04/14 10:44:23;;;;;;;2.60;0.85;;;;;;;;;;5068272;28;20135;-76
2022/04/14 10:46:51;;;;;;;4.38;1.02;;;;;;;;;;5069219;28;20123;-76
2022/04/14 10:49:32;;;;;;;4.47;1.30;;;;;;;;;;5046701;28;20036;-76
2022/04/14 10:52:25;;;;;;;4.00;1.00;;;;;;;;;;5068175;28;20559;-75
2022/04/14 10:55:00;;;;;;;;;;;;;;;;;;5072755;28;20553;-75
2022/04/14 10:57:36;;;;;;;3.38;1.05;;;;;;;;;;5083482;28;19914;-75
2022/04/14 11:00:22;;;;;;;5.63;1.20;;;;;;;;;;5063110;28;20051;-76
2022/04/14 11:03:13;;;;;;;5.90;1.25;;;;;;;;;;5065610;28;20039;-75
2022/04/14 11:05:40;;;;;;;5.97;1.40;;;;;;;;;;5068559;28;20510;-76
2022/04/14 11:08:31;;;;;;;4.35;1.20;;;;;;;;;;5065603;28;20045;-76
2022/04/14 11:11:14;;;;;;;11.52;1.25;;;;;;;;;;5067842;28;20025;-76
2022/04/14 11:13:55;;;;;;;7.45;1.58;;;;;;;;;;5066500;28;20038;-80
2022/04/14 11:16:49;;;;;;;3.30;1.30;;;;;;;;;;5084053;28;20035;-81
2022/04/14 11:19:17;;;;;;;5.82;1.30;;;;;;;;;;5082371;28;20377;-81
2022/04/14 11:21:58;;;;;;;1.83;1.10;;;;;;;;;;5067691;28;20040;-80
2022/04/14 11:24:33;;;;;;;7.85;1.17;;;;;;;;;;5083956;28;20140;-76
2022/04/14 11:27:18;;;;;;;4.05;1.42;;;;;;;;;;5067806;28;20553;-76
2022/04/14 11:29:49;;;;;;;5.40;1.20;;;;;;;;;;5067310;28;20090;-76
2022/04/14 11:32:16;;;;;;;1.65;1.00;;;;;;;;;;5065451;28;20021;-76
2022/04/14 11:34:42;;;;;;;3.35;1.08;;;;;;;;;;5064834;28;20028;-75
2022/04/14 11:37:42;;;;;;;3.53;1.20;;;;;;;;;;5049805;28;20040;-75
2022/04/14 11:40:24;;;;;;;3.65;0.98;;;;;;;;;;5082529;28;20674;-75
2022/04/14 11:42:54;;;;;;;3.35;1.38;;;;;;;;;;5061852;28;20502;-75
2022/04/14 11:45:28;;;;;;;6.68;1.30;;;;;;;;;;5068275;28;20048;-76
2022/04/14 11:47:55;;;;;;;4.47;1.38;;;;;;;;;;5068692;28;20047;-75
2022/04/14 11:50:25;;;;;;;4.75;1.40;;;;;;;;;;5065574;28;20025;-75
2022/04/14 11:52:58;;;;;;;5.93;1.67;;;;;;;;;;5082391;28;20708;-75
2022/04/14 11:55:38;;;;;;;4.30;1.27;;;;;;;;;;5068285;28;20467;-75
2022/04/14 11:58:08;;;;;;;4.93;1.38;;;;;;;;;;5066932;28;20024;-76
2022/04/14 12:00:54;;;;;;;9.32;1.60;;;;;;;;;;5067202;28;20089;-76
2022/04/14 12:03:31;;;;;;;5.15;1.48;;;;;;;;;;5059338;28;20024;-75
2022/04/14 12:06:02;;;;;;;3.83;1.35;;;;;;;;;;5065117;28;20542;-75
2022/04/14 12:08:28;;;;;;;1.70;1.20;;;;;;;;;;5065247;28;20028;-75
2022/04/14 12:10:54;;;;;;;6.53;1.63;;;;;;;;;;5068322;28;20047;-76
2022/04/14 12:13:21;;;;;;;4.28;1.25;;;;;;;;;;5052490;28;20479;-80
2022/04/14 12:16:07;;;;;;;2.95;1.20;;;;;;;;;;5064188;28;20131;-81
2022/04/14 12:18:34;;;;;;;4.03;1.35;;;;;;;;;;5065226;28;20024;-81
2022/04/14 12:20:59;;;;;;;4.72;1.20;;;;;;;;;;5067924;28;20039;-81
2022/04/14 12:23:25;;;;;;;4.93;1.35;;;;;;;;;;5063392;28;20017;-81
2022/04/14 12:25:52;;;;;;;5.78;1.40;;;;;;;;;;5049142;28;20029;-80
2022/04/14 12:28:18;;;;;;;2.28;1.27;;;;;;;;;;5064697;28;20029;-75
2022/04/14 12:30:44;;;;;;;5.45;1.30;;;;;;;;;;5068553;28;20576;-76
2022/04/14 12:33:10;;;;;;;7.60;1.52;;;;;;;;;;5066280;28;20032;-76
2022/04/14 12:35:37;;;;;;;3.90;1.20;;;;;;;;;;5051423;28;20079;-76
2022/04/14 12:38:14;;;;;;;4.40;1.23;;;;;;;;;;5066590;28;20016;-76
2022/04/14 12:41:00;;;;;;;2.30;0.98;;;;;;;;;;5067804;28;20028;-76
2022/04/14 12:43:40;;;;;;;3.97;1.15;;;;;;;;;;5067433;28;20086;-76
2022/04/14 12:46:38;;;;;;;5.57;1.63;;;;;;;;;;5039233;28;20038;-75
2022/04/14 12:49:15;;;;;;;4.97;1.48;;;;;;;;;;5063943;28;20060;-75
2022/04/14 12:51:52;;;;;;;8.90;1.10;;;;;;;;;;5059790;28;20438;-76
2022/04/14 12:54:17;;;;;;;8.52;2.92;;;;;;;;;;5060006;28;20713;-76
2022/04/14 12:57:03;;;;;;;5.07;1.27;;;;;;;;;;5064056;28;20121;-77
2022/04/14 12:59:30;;;;;;;3.58;1.00;;;;;;;;;;5065467;28;20448;-76
2022/04/14 13:02:08;;;;;;;4.95;1.40;;;;;;;;;;5065146;28;20146;-76
2022/04/14 13:04:38;;;;;;;4.15;1.33;;;;;;;;;;5065531;28;20047;-75
2022/04/14 13:07:15;;;;;;;7.13;1.52;;;;;;;;;;5063475;28;20406;-76
2022/04/14 13:10:01;;;;;;;2.80;1.15;;;;;;;;;;5061518;28;20509;-76
2022/04/14 13:12:44;;;;;;;5.38;1.38;;;;;;;;;;5061437;28;20040;-81
2022/04/14 13:15:13;;;;;;;5.03;1.30;;;;;;;;;;5061422;28;20033;-76
2022/04/14 13:17:39;;;;;;;5.03;1.13;;;;;;;;;;5070001;28;20477;-76
2022/04/14 13:20:13;;;;;;;6.10;1.52;;;;;;;;;;5070362;28;20115;-76
2022/04/14 13:22:40;;;;;;;3.13;1.08;;;;;;;;;;5069831;28;20052;-76
2022/04/14 13:25:07;;;;;;;4.07;1.17;;;;;;;;;;5069758;28;20106;-76
2022/04/14 13:27:33;;;;;;;5.15;1.10;;;;;;;;;;5046142;28;20510;-81
2022/04/14 13:30:02;;;;;;;4.15;1.35;;;;;;;;;;5069744;28;20032;-81
2022/04/14 13:32:28;;;;;;;12.32;1.60;;;;;;;;;;5067251;28;20093;-81
2022/04/14 13:34:55;;;;;;;5.30;1.15;;;;;;;;;;5071965;28;20498;-82
2022/04/14 13:37:21;;;;;;;9.45;1.38;;;;;;;;;;5090328;28;20032;-81
2022/04/14 13:39:46;;;;;;;4.32;1.40;;;;;;;;;;5065891;28;20029;-80
2022/04/14 13:42:13;;;;;;;5.65;1.20;;;;;;;;;;5071937;28;20623;-81
2022/04/14 13:44:38;;;;;;;11.55;1.50;;;;;;;;;;5071292;28;20470;-80
2022/04/14 13:47:04;;;;;;;2.75;1.23;;;;;;;;;;5057388;28;20099;-80
2022/04/14 13:49:29;;;;;;;6.97;1.23;;;;;;;;;;5051424;28;20032;-80
2022/04/14 13:51:55;;;;;;;8.27;1.55;;;;;;;;;;5067494;28;20088;-80
2022/04/14 13:54:21;;;;;;;3.67;1.30;;;;;;;;;;5054381;28;20124;-76
2022/04/14 13:56:48;;;;;;;11.88;2.75;;;;;;;;;;5054711;28;20116;-75
2022/04/14 13:59:13;;;;;;;6.35;1.63;;;;;;;;;;5068234;28;20086;-75
2022/04/14 14:01:39;;;;;;;9.70;1.40;;;;;;;;;;5061917;28;20020;-76
2022/04/14 14:04:05;;;;;;;8.15;1.52;;;;;;;;;;5043882;28;20098;-76
2022/04/14 14:06:30;;;;;;;11.23;1.77;;;;;;;;;;5068204;28;20440;-75
2022/04/14 14:08:56;;;;;;;4.43;1.10;;;;;;;;;;5065633;28;20029;-75
2022/04/14 14:11:22;;;;;;;7.38;1.60;;;;;;;;;;5089352;28;20086;-76
2022/04/14 14:13:49;;;;;;;7.47;1.67;;;;;;;;;;5066032;28;20024;-80
2022/04/14 14:16:14;;;;;;;10.20;1.33;;;;;;;;;;5069577;28;20024;-80
2022/04/14 14:18:40;;;;;;;3.42;1.30;;;;;;;;;;5047615;28;20917;-81
2022/04/14 14:21:06;;;;;;;6.85;1.65;;;;;;;;;;5055794;28;20044;-80
2022/04/14 14:23:32;;;;;;;3.83;1.40;;;;;;;;;;5071151;28;20075;-80
2022/04/14 14:25:57;;;;;;;5.97;1.65;;;;;;;;;;5070792;28;20121;-80
2022/04/14 14:28:23;;;;;;;8.00;1.65;;;;;;;;;;5048472;28;20102;-81
2022/04/14 14:30:48;;;;;;;6.40;1.42;;;;;;;;;;5068361;28;20041;-81
2022/04/14 14:33:14;;;;;;;5.47;1.20;;;;;;;;;;5067940;28;20059;-76